sensor_id;sensor_type;location;lat;lon;timestamp;P1;durP1;ratioP1;P2;durP2;ratioP2
62582;SDS011;48641;51.676;5.808;2022-07-29T00:02:08;2.08;;;0.95;;
62582;SDS011;48641;51.676;5.808;2022-07-29T00:04:34;2.72;;;1.00;;
62582;SDS011;48641;51.676;5.808;2022-07-29T00:07:00;4.20;;;1.02;;
62582;SDS011;48641;51.676;5.808;2022-07-29T00:09:26;2.70;;;1.00;;
62582;SDS011;48641;51.676;5.808;2022-07-29T00:11:52;2.50;;;1.08;;
62582;SDS011;48641;51.676;5.808;2022-07-29T00:14:19;2.35;;;1.08;;
62582;SDS011;48641;51.676;5.808;2022-07-29T00:16:45;2.20;;;0.90;;
62582;SDS011;48641;51.676;5.808;2022-07-29T00:19:10;2.83;;;0.95;;
62582;SDS011;48641;51.676;5.808;2022-07-29T00:21:36;2.92;;;0.95;;
62582;SDS011;48641;51.676;5.808;2022-07-29T00:24:01;1.90;;;1.00;;
62582;SDS011;48641;51.676;5.808;2022-07-29T00:26:27;2.22;;;0.90;;
62582;SDS011;48641;51.676;5.808;2022-07-29T00:28:56;4.10;;;1.08;;
62582;SDS011;48641;51.676;5.808;2022-07-29T00:31:23;3.05;;;1.20;;
62582;SDS011;48641;51.676;5.808;2022-07-29T00:33:48;3.72;;;1.00;;
62582;SDS011;48641;51.676;5.808;2022-07-29T00:36:14;1.88;;;0.90;;
62582;SDS011;48641;51.676;5.808;2022-07-29T00:38:39;1.77;;;0.88;;
62582;SDS011;48641;51.676;5.808;2022-07-29T00:41:09;2.63;;;1.20;;
62582;SDS011;48641;51.676;5.808;2022-07-29T00:43:35;3.65;;;1.20;;
62582;SDS011;48641;51.676;5.808;2022-07-29T00:46:00;3.05;;;1.10;;
62582;SDS011;48641;51.676;5.808;2022-07-29T00:48:26;2.45;;;0.90;;
62582;SDS011;48641;51.676;5.808;2022-07-29T00:50:52;2.67;;;0.90;;
62582;SDS011;48641;51.676;5.808;2022-07-29T00:53:17;3.10;;;1.17;;
62582;SDS011;48641;51.676;5.808;2022-07-29T00:55:45;1.75;;;0.98;;
62582;SDS011;48641;51.676;5.808;2022-07-29T00:58:11;2.38;;;0.90;;
62582;SDS011;48641;51.676;5.808;2022-07-29T01:00:38;2.87;;;1.20;;
62582;SDS011;48641;51.676;5.808;2022-07-29T01:03:05;2.47;;;1.00;;
62582;SDS011;48641;51.676;5.808;2022-07-29T01:05:31;2.58;;;1.00;;
62582;SDS011;48641;51.676;5.808;2022-07-29T01:07:58;3.05;;;1.05;;
62582;SDS011;48641;51.676;5.808;2022-07-29T01:10:25;2.20;;;1.10;;
62582;SDS011;48641;51.676;5.808;2022-07-29T01:12:51;4.18;;;1.25;;
62582;SDS011;48641;51.676;5.808;2022-07-29T01:15:19;4.57;;;1.40;;
62582;SDS011;48641;51.676;5.808;2022-07-29T01:26:29;4.50;;;1.20;;
62582;SDS011;48641;51.676;5.808;2022-07-29T01:31:45;2.90;;;1.20;;
62582;SDS011;48641;51.676;5.808;2022-07-29T01:34:23;4.13;;;1.10;;
62582;SDS011;48641;51.676;5.808;2022-07-29T01:37:03;4.13;;;1.10;;
62582;SDS011;48641;51.676;5.808;2022-07-29T01:39:42;3.88;;;1.30;;
62582;SDS011;48641;51.676;5.808;2022-07-29T01:47:38;3.35;;;1.00;;
62582;SDS011;48641;51.676;5.808;2022-07-29T01:50:08;4.15;;;1.20;;
62582;SDS011;48641;51.676;5.808;2022-07-29T01:52:39;3.75;;;1.17;;
62582;SDS011;48641;51.676;5.808;2022-07-29T01:55:12;3.75;;;1.10;;
62582;SDS011;48641;51.676;5.808;2022-07-29T01:57:40;3.20;;;1.38;;
62582;SDS011;48641;51.676;5.808;2022-07-29T02:00:10;4.40;;;1.30;;
62582;SDS011;48641;51.676;5.808;2022-07-29T02:02:37;2.50;;;1.00;;
62582;SDS011;48641;51.676;5.808;2022-07-29T02:05:06;4.00;;;1.25;;
62582;SDS011;48641;51.676;5.808;2022-07-29T02:07:35;3.55;;;1.25;;
62582;SDS011;48641;51.676;5.808;2022-07-29T02:10:03;4.03;;;1.48;;
62582;SDS011;48641;51.676;5.808;2022-07-29T02:12:31;4.85;;;1.30;;
62582;SDS011;48641;51.676;5.808;2022-07-29T02:14:59;3.78;;;1.25;;
62582;SDS011;48641;51.676;5.808;2022-07-29T02:17:29;3.95;;;1.30;;
62582;SDS011;48641;51.676;5.808;2022-07-29T02:19:59;4.32;;;1.50;;
62582;SDS011;48641;51.676;5.808;2022-07-29T02:22:28;3.95;;;1.40;;
62582;SDS011;48641;51.676;5.808;2022-07-29T02:24:56;3.80;;;1.30;;
62582;SDS011;48641;51.676;5.808;2022-07-29T02:27:23;4.05;;;1.10;;
62582;SDS011;48641;51.676;5.808;2022-07-29T02:29:50;3.80;;;1.23;;
62582;SDS011;48641;51.676;5.808;2022-07-29T02:32:17;3.33;;;1.33;;
62582;SDS011;48641;51.676;5.808;2022-07-29T02:34:44;3.53;;;1.40;;
62582;SDS011;48641;51.676;5.808;2022-07-29T02:37:11;2.85;;;1.13;;
62582;SDS011;48641;51.676;5.808;2022-07-29T02:39:39;3.03;;;1.17;;
62582;SDS011;48641;51.676;5.808;2022-07-29T02:44:34;3.45;;;1.17;;
62582;SDS011;48641;51.676;5.808;2022-07-29T02:49:37;3.45;;;1.20;;
62582;SDS011;48641;51.676;5.808;2022-07-29T02:52:26;4.18;;;1.40;;
62582;SDS011;48641;51.676;5.808;2022-07-29T02:54:58;4.35;;;1.38;;
62582;SDS011;48641;51.676;5.808;2022-07-29T02:57:41;3.10;;;1.20;;
62582;SDS011;48641;51.676;5.808;2022-07-29T03:00:16;3.75;;;1.30;;
62582;SDS011;48641;51.676;5.808;2022-07-29T03:02:43;4.35;;;1.40;;
62582;SDS011;48641;51.676;5.808;2022-07-29T03:05:15;4.07;;;1.30;;
62582;SDS011;48641;51.676;5.808;2022-07-29T03:07:45;2.88;;;1.10;;
62582;SDS011;48641;51.676;5.808;2022-07-29T03:10:14;3.67;;;1.40;;
62582;SDS011;48641;51.676;5.808;2022-07-29T03:12:40;2.55;;;1.15;;
62582;SDS011;48641;51.676;5.808;2022-07-29T03:15:07;3.88;;;1.20;;
62582;SDS011;48641;51.676;5.808;2022-07-29T03:17:34;2.38;;;1.02;;
62582;SDS011;48641;51.676;5.808;2022-07-29T03:20:00;3.95;;;1.25;;
62582;SDS011;48641;51.676;5.808;2022-07-29T03:22:27;3.10;;;1.20;;
62582;SDS011;48641;51.676;5.808;2022-07-29T03:24:53;3.22;;;1.38;;
62582;SDS011;48641;51.676;5.808;2022-07-29T03:27:18;2.75;;;1.20;;
62582;SDS011;48641;51.676;5.808;2022-07-29T03:29:44;3.63;;;1.33;;
62582;SDS011;48641;51.676;5.808;2022-07-29T03:32:10;1.90;;;1.13;;
62582;SDS011;48641;51.676;5.808;2022-07-29T03:34:36;2.65;;;1.10;;
62582;SDS011;48641;51.676;5.808;2022-07-29T03:37:03;3.72;;;1.33;;
62582;SDS011;48641;51.676;5.808;2022-07-29T03:39:31;3.25;;;1.30;;
62582;SDS011;48641;51.676;5.808;2022-07-29T03:42:00;3.78;;;1.17;;
62582;SDS011;48641;51.676;5.808;2022-07-29T03:44:26;3.15;;;1.30;;
62582;SDS011;48641;51.676;5.808;2022-07-29T03:46:53;3.40;;;1.25;;
62582;SDS011;48641;51.676;5.808;2022-07-29T03:51:49;3.70;;;1.20;;
62582;SDS011;48641;51.676;5.808;2022-07-29T03:54:15;3.13;;;1.30;;
62582;SDS011;48641;51.676;5.808;2022-07-29T03:56:42;5.68;;;1.60;;
62582;SDS011;48641;51.676;5.808;2022-07-29T03:59:12;4.40;;;1.40;;
62582;SDS011;48641;51.676;5.808;2022-07-29T04:01:40;2.58;;;1.20;;
62582;SDS011;48641;51.676;5.808;2022-07-29T04:04:07;2.90;;;1.20;;
62582;SDS011;48641;51.676;5.808;2022-07-29T04:06:39;3.33;;;1.10;;
62582;SDS011;48641;51.676;5.808;2022-07-29T04:09:05;4.78;;;1.50;;
62582;SDS011;48641;51.676;5.808;2022-07-29T04:11:31;3.03;;;1.20;;
62582;SDS011;48641;51.676;5.808;2022-07-29T04:13:57;4.30;;;1.40;;
62582;SDS011;48641;51.676;5.808;2022-07-29T04:16:23;2.75;;;1.30;;
62582;SDS011;48641;51.676;5.808;2022-07-29T04:18:48;5.82;;;1.40;;
62582;SDS011;48641;51.676;5.808;2022-07-29T04:21:14;3.08;;;1.25;;
62582;SDS011;48641;51.676;5.808;2022-07-29T04:23:39;3.95;;;1.20;;
62582;SDS011;48641;51.676;5.808;2022-07-29T04:26:06;2.13;;;1.10;;
62582;SDS011;48641;51.676;5.808;2022-07-29T04:28:34;2.20;;;1.20;;
62582;SDS011;48641;51.676;5.808;2022-07-29T04:31:00;2.67;;;1.20;;
62582;SDS011;48641;51.676;5.808;2022-07-29T04:33:25;3.42;;;1.33;;
62582;SDS011;48641;51.676;5.808;2022-07-29T04:35:51;3.95;;;1.40;;
62582;SDS011;48641;51.676;5.808;2022-07-29T04:38:16;3.40;;;1.30;;
62582;SDS011;48641;51.676;5.808;2022-07-29T04:40:42;2.80;;;1.20;;
62582;SDS011;48641;51.676;5.808;2022-07-29T04:43:08;3.60;;;1.60;;
62582;SDS011;48641;51.676;5.808;2022-07-29T04:45:33;3.85;;;1.35;;
62582;SDS011;48641;51.676;5.808;2022-07-29T04:47:59;2.92;;;1.30;;
62582;SDS011;48641;51.676;5.808;2022-07-29T04:50:25;2.35;;;1.17;;
62582;SDS011;48641;51.676;5.808;2022-07-29T04:52:50;2.55;;;1.30;;
62582;SDS011;48641;51.676;5.808;2022-07-29T04:55:16;2.97;;;1.33;;
62582;SDS011;48641;51.676;5.808;2022-07-29T04:57:42;2.53;;;1.20;;
62582;SDS011;48641;51.676;5.808;2022-07-29T05:00:07;2.35;;;1.20;;
62582;SDS011;48641;51.676;5.808;2022-07-29T05:02:34;3.63;;;1.38;;
62582;SDS011;48641;51.676;5.808;2022-07-29T05:04:59;4.57;;;1.40;;
62582;SDS011;48641;51.676;5.808;2022-07-29T05:07:25;4.07;;;1.50;;
62582;SDS011;48641;51.676;5.808;2022-07-29T05:09:50;3.50;;;1.50;;
62582;SDS011;48641;51.676;5.808;2022-07-29T05:12:17;4.43;;;1.63;;
62582;SDS011;48641;51.676;5.808;2022-07-29T05:14:43;4.70;;;1.80;;
62582;SDS011;48641;51.676;5.808;2022-07-29T05:17:08;3.47;;;1.50;;
62582;SDS011;48641;51.676;5.808;2022-07-29T05:19:34;3.65;;;1.40;;
62582;SDS011;48641;51.676;5.808;2022-07-29T05:21:59;4.15;;;1.55;;
62582;SDS011;48641;51.676;5.808;2022-07-29T05:24:25;3.50;;;1.58;;
62582;SDS011;48641;51.676;5.808;2022-07-29T05:26:51;3.15;;;1.52;;
62582;SDS011;48641;51.676;5.808;2022-07-29T05:29:16;5.93;;;1.58;;
62582;SDS011;48641;51.676;5.808;2022-07-29T05:31:42;6.63;;;1.80;;
62582;SDS011;48641;51.676;5.808;2022-07-29T05:34:07;5.45;;;2.08;;
62582;SDS011;48641;51.676;5.808;2022-07-29T05:36:33;5.68;;;1.80;;
62582;SDS011;48641;51.676;5.808;2022-07-29T05:38:58;6.07;;;2.00;;
62582;SDS011;48641;51.676;5.808;2022-07-29T05:41:24;5.63;;;1.90;;
62582;SDS011;48641;51.676;5.808;2022-07-29T05:43:49;7.70;;;1.85;;
62582;SDS011;48641;51.676;5.808;2022-07-29T05:46:15;6.90;;;1.95;;
62582;SDS011;48641;51.676;5.808;2022-07-29T05:48:41;6.05;;;2.00;;
62582;SDS011;48641;51.676;5.808;2022-07-29T05:51:06;4.05;;;1.67;;
62582;SDS011;48641;51.676;5.808;2022-07-29T05:53:32;5.18;;;2.05;;
62582;SDS011;48641;51.676;5.808;2022-07-29T05:55:58;5.80;;;1.58;;
62582;SDS011;48641;51.676;5.808;2022-07-29T05:58:27;6.20;;;1.88;;
62582;SDS011;48641;51.676;5.808;2022-07-29T06:00:53;5.72;;;1.70;;
62582;SDS011;48641;51.676;5.808;2022-07-29T06:03:18;4.95;;;1.60;;
62582;SDS011;48641;51.676;5.808;2022-07-29T06:05:44;4.85;;;1.90;;
62582;SDS011;48641;51.676;5.808;2022-07-29T06:08:09;3.97;;;1.52;;
62582;SDS011;48641;51.676;5.808;2022-07-29T06:10:35;4.95;;;1.70;;
62582;SDS011;48641;51.676;5.808;2022-07-29T06:13:01;4.85;;;1.60;;
62582;SDS011;48641;51.676;5.808;2022-07-29T06:15:26;5.65;;;1.80;;
62582;SDS011;48641;51.676;5.808;2022-07-29T06:17:52;3.67;;;1.60;;
62582;SDS011;48641;51.676;5.808;2022-07-29T06:20:18;4.80;;;1.70;;
62582;SDS011;48641;51.676;5.808;2022-07-29T06:22:44;3.58;;;1.70;;
62582;SDS011;48641;51.676;5.808;2022-07-29T06:25:09;4.60;;;1.73;;
62582;SDS011;48641;51.676;5.808;2022-07-29T06:27:35;3.72;;;1.40;;
62582;SDS011;48641;51.676;5.808;2022-07-29T06:30:01;6.15;;;2.10;;
62582;SDS011;48641;51.676;5.808;2022-07-29T06:32:27;4.35;;;1.60;;
62582;SDS011;48641;51.676;5.808;2022-07-29T06:34:52;4.78;;;1.73;;
62582;SDS011;48641;51.676;5.808;2022-07-29T06:37:18;3.63;;;1.63;;
62582;SDS011;48641;51.676;5.808;2022-07-29T06:39:43;4.13;;;1.50;;
62582;SDS011;48641;51.676;5.808;2022-07-29T06:42:09;4.47;;;1.60;;
62582;SDS011;48641;51.676;5.808;2022-07-29T06:44:35;4.47;;;1.58;;
62582;SDS011;48641;51.676;5.808;2022-07-29T06:47:00;3.63;;;1.63;;
62582;SDS011;48641;51.676;5.808;2022-07-29T06:49:26;4.45;;;1.58;;
62582;SDS011;48641;51.676;5.808;2022-07-29T06:51:52;3.38;;;1.40;;
62582;SDS011;48641;51.676;5.808;2022-07-29T06:54:18;5.40;;;1.63;;
62582;SDS011;48641;51.676;5.808;2022-07-29T06:56:44;3.00;;;1.38;;
62582;SDS011;48641;51.676;5.808;2022-07-29T06:59:11;3.60;;;1.55;;
62582;SDS011;48641;51.676;5.808;2022-07-29T07:01:37;3.47;;;1.45;;
62582;SDS011;48641;51.676;5.808;2022-07-29T07:04:05;5.72;;;1.80;;
62582;SDS011;48641;51.676;5.808;2022-07-29T07:06:33;3.97;;;1.52;;
62582;SDS011;48641;51.676;5.808;2022-07-29T07:08:59;2.85;;;1.38;;
62582;SDS011;48641;51.676;5.808;2022-07-29T07:11:24;4.82;;;1.50;;
62582;SDS011;48641;51.676;5.808;2022-07-29T07:13:50;4.72;;;1.65;;
62582;SDS011;48641;51.676;5.808;2022-07-29T07:16:15;3.47;;;1.50;;
62582;SDS011;48641;51.676;5.808;2022-07-29T07:18:41;4.53;;;1.50;;
62582;SDS011;48641;51.676;5.808;2022-07-29T07:21:07;5.47;;;1.65;;
62582;SDS011;48641;51.676;5.808;2022-07-29T07:23:32;4.18;;;1.50;;
62582;SDS011;48641;51.676;5.808;2022-07-29T07:25:58;3.33;;;1.50;;
62582;SDS011;48641;51.676;5.808;2022-07-29T07:28:23;3.78;;;1.67;;
62582;SDS011;48641;51.676;5.808;2022-07-29T07:30:49;2.85;;;1.48;;
62582;SDS011;48641;51.676;5.808;2022-07-29T07:33:14;4.15;;;1.55;;
62582;SDS011;48641;51.676;5.808;2022-07-29T07:35:40;3.38;;;1.42;;
62582;SDS011;48641;51.676;5.808;2022-07-29T07:38:06;3.90;;;1.45;;
62582;SDS011;48641;51.676;5.808;2022-07-29T07:40:32;5.55;;;1.60;;
62582;SDS011;48641;51.676;5.808;2022-07-29T07:42:58;4.05;;;1.40;;
62582;SDS011;48641;51.676;5.808;2022-07-29T07:45:24;4.72;;;1.77;;
62582;SDS011;48641;51.676;5.808;2022-07-29T07:47:49;4.32;;;1.52;;
62582;SDS011;48641;51.676;5.808;2022-07-29T07:50:15;2.75;;;1.50;;
62582;SDS011;48641;51.676;5.808;2022-07-29T07:52:49;5.32;;;1.50;;
62582;SDS011;48641;51.676;5.808;2022-07-29T07:55:16;5.25;;;1.58;;
62582;SDS011;48641;51.676;5.808;2022-07-29T07:57:43;3.97;;;1.30;;
62582;SDS011;48641;51.676;5.808;2022-07-29T08:00:09;5.05;;;1.50;;
62582;SDS011;48641;51.676;5.808;2022-07-29T08:02:35;2.40;;;1.20;;
62582;SDS011;48641;51.676;5.808;2022-07-29T08:05:00;3.58;;;1.60;;
62582;SDS011;48641;51.676;5.808;2022-07-29T08:07:26;3.08;;;1.40;;
62582;SDS011;48641;51.676;5.808;2022-07-29T08:09:51;2.85;;;1.48;;
62582;SDS011;48641;51.676;5.808;2022-07-29T08:12:17;3.15;;;1.50;;
62582;SDS011;48641;51.676;5.808;2022-07-29T08:14:43;4.28;;;1.60;;
62582;SDS011;48641;51.676;5.808;2022-07-29T08:17:08;4.32;;;1.42;;
62582;SDS011;48641;51.676;5.808;2022-07-29T08:19:34;3.22;;;1.30;;
62582;SDS011;48641;51.676;5.808;2022-07-29T08:21:59;3.30;;;1.55;;
62582;SDS011;48641;51.676;5.808;2022-07-29T08:24:25;4.20;;;1.70;;
62582;SDS011;48641;51.676;5.808;2022-07-29T08:27:09;3.10;;;1.30;;
62582;SDS011;48641;51.676;5.808;2022-07-29T08:29:35;2.80;;;1.33;;
62582;SDS011;48641;51.676;5.808;2022-07-29T08:32:02;4.93;;;1.30;;
62582;SDS011;48641;51.676;5.808;2022-07-29T08:34:28;3.33;;;1.42;;
62582;SDS011;48641;51.676;5.808;2022-07-29T08:36:54;3.75;;;1.40;;
62582;SDS011;48641;51.676;5.808;2022-07-29T08:39:21;4.35;;;1.48;;
62582;SDS011;48641;51.676;5.808;2022-07-29T08:41:47;3.40;;;1.45;;
62582;SDS011;48641;51.676;5.808;2022-07-29T08:44:13;4.40;;;1.48;;
62582;SDS011;48641;51.676;5.808;2022-07-29T08:46:46;3.85;;;1.48;;
62582;SDS011;48641;51.676;5.808;2022-07-29T08:49:12;3.33;;;1.27;;
62582;SDS011;48641;51.676;5.808;2022-07-29T08:51:41;4.22;;;1.40;;
62582;SDS011;48641;51.676;5.808;2022-07-29T08:54:08;4.30;;;1.48;;
62582;SDS011;48641;51.676;5.808;2022-07-29T08:56:35;3.42;;;1.40;;
62582;SDS011;48641;51.676;5.808;2022-07-29T08:59:04;3.80;;;1.20;;
62582;SDS011;48641;51.676;5.808;2022-07-29T09:01:32;2.70;;;1.30;;
62582;SDS011;48641;51.676;5.808;2022-07-29T09:03:59;3.00;;;1.38;;
62582;SDS011;48641;51.676;5.808;2022-07-29T09:06:29;4.07;;;1.50;;
62582;SDS011;48641;51.676;5.808;2022-07-29T09:08:58;3.72;;;1.30;;
62582;SDS011;48641;51.676;5.808;2022-07-29T09:11:25;3.75;;;1.25;;
62582;SDS011;48641;51.676;5.808;2022-07-29T09:13:51;4.18;;;1.30;;
62582;SDS011;48641;51.676;5.808;2022-07-29T09:16:16;4.68;;;1.60;;
62582;SDS011;48641;51.676;5.808;2022-07-29T09:18:43;3.10;;;1.20;;
62582;SDS011;48641;51.676;5.808;2022-07-29T09:21:13;3.25;;;1.42;;
62582;SDS011;48641;51.676;5.808;2022-07-29T09:26:30;3.67;;;1.40;;
62582;SDS011;48641;51.676;5.808;2022-07-29T09:28:57;3.03;;;1.33;;
62582;SDS011;48641;51.676;5.808;2022-07-29T09:31:34;3.35;;;1.40;;
62582;SDS011;48641;51.676;5.808;2022-07-29T09:34:01;3.85;;;1.55;;
62582;SDS011;48641;51.676;5.808;2022-07-29T09:36:27;3.13;;;1.40;;
62582;SDS011;48641;51.676;5.808;2022-07-29T09:38:56;4.05;;;1.55;;
62582;SDS011;48641;51.676;5.808;2022-07-29T09:41:24;5.82;;;1.75;;
62582;SDS011;48641;51.676;5.808;2022-07-29T09:43:53;4.13;;;1.52;;
62582;SDS011;48641;51.676;5.808;2022-07-29T09:46:20;4.90;;;1.65;;
62582;SDS011;48641;51.676;5.808;2022-07-29T09:48:59;3.63;;;1.50;;
62582;SDS011;48641;51.676;5.808;2022-07-29T09:51:32;2.65;;;1.40;;
62582;SDS011;48641;51.676;5.808;2022-07-29T09:53:58;4.32;;;1.63;;
62582;SDS011;48641;51.676;5.808;2022-07-29T09:56:37;4.30;;;2.03;;
62582;SDS011;48641;51.676;5.808;2022-07-29T09:59:04;4.35;;;1.80;;
62582;SDS011;48641;51.676;5.808;2022-07-29T10:01:31;4.43;;;1.75;;
62582;SDS011;48641;51.676;5.808;2022-07-29T10:03:57;4.13;;;1.70;;
62582;SDS011;48641;51.676;5.808;2022-07-29T10:06:22;3.83;;;1.67;;
62582;SDS011;48641;51.676;5.808;2022-07-29T10:08:48;5.05;;;1.90;;
62582;SDS011;48641;51.676;5.808;2022-07-29T10:11:15;7.10;;;2.00;;
62582;SDS011;48641;51.676;5.808;2022-07-29T10:13:42;4.53;;;2.00;;
62582;SDS011;48641;51.676;5.808;2022-07-29T10:16:09;4.15;;;1.70;;
62582;SDS011;48641;51.676;5.808;2022-07-29T10:18:37;5.07;;;1.80;;
62582;SDS011;48641;51.676;5.808;2022-07-29T10:21:04;5.13;;;1.90;;
62582;SDS011;48641;51.676;5.808;2022-07-29T10:23:30;5.28;;;1.60;;
62582;SDS011;48641;51.676;5.808;2022-07-29T10:25:56;4.75;;;1.77;;
62582;SDS011;48641;51.676;5.808;2022-07-29T10:28:22;3.28;;;1.50;;
62582;SDS011;48641;51.676;5.808;2022-07-29T10:30:49;3.92;;;1.85;;
62582;SDS011;48641;51.676;5.808;2022-07-29T10:42:18;4.57;;;1.60;;
62582;SDS011;48641;51.676;5.808;2022-07-29T10:44:50;4.47;;;1.88;;
62582;SDS011;48641;51.676;5.808;2022-07-29T10:47:23;4.80;;;1.90;;
62582;SDS011;48641;51.676;5.808;2022-07-29T10:49:56;5.07;;;1.95;;
62582;SDS011;48641;51.676;5.808;2022-07-29T10:52:23;3.60;;;1.70;;
62582;SDS011;48641;51.676;5.808;2022-07-29T10:54:52;5.38;;;1.80;;
62582;SDS011;48641;51.676;5.808;2022-07-29T10:57:28;6.85;;;1.85;;
62582;SDS011;48641;51.676;5.808;2022-07-29T11:05:03;4.10;;;1.83;;
62582;SDS011;48641;51.676;5.808;2022-07-29T11:07:30;4.05;;;1.85;;
62582;SDS011;48641;51.676;5.808;2022-07-29T11:20:32;3.42;;;1.80;;
62582;SDS011;48641;51.676;5.808;2022-07-29T11:28:50;3.03;;;1.40;;
62582;SDS011;48641;51.676;5.808;2022-07-29T11:34:18;2.50;;;1.30;;
62582;SDS011;48641;51.676;5.808;2022-07-29T11:39:34;4.25;;;1.50;;
62582;SDS011;48641;51.676;5.808;2022-07-29T11:47:32;4.35;;;1.73;;
62582;SDS011;48641;51.676;5.808;2022-07-29T11:50:00;2.97;;;1.42;;
62582;SDS011;48641;51.676;5.808;2022-07-29T11:52:37;5.43;;;1.80;;
62582;SDS011;48641;51.676;5.808;2022-07-29T11:55:12;3.90;;;1.45;;
62582;SDS011;48641;51.676;5.808;2022-07-29T11:57:47;4.40;;;1.65;;
62582;SDS011;48641;51.676;5.808;2022-07-29T12:00:34;6.00;;;1.60;;
62582;SDS011;48641;51.676;5.808;2022-07-29T12:03:04;7.43;;;1.77;;
62582;SDS011;48641;51.676;5.808;2022-07-29T12:08:27;4.15;;;1.55;;
62582;SDS011;48641;51.676;5.808;2022-07-29T12:10:52;5.55;;;1.60;;
62582;SDS011;48641;51.676;5.808;2022-07-29T12:13:18;5.05;;;1.70;;
62582;SDS011;48641;51.676;5.808;2022-07-29T12:15:55;4.97;;;1.38;;
62582;SDS011;48641;51.676;5.808;2022-07-29T12:18:22;4.05;;;1.52;;
62582;SDS011;48641;51.676;5.808;2022-07-29T12:20:48;3.47;;;1.30;;
62582;SDS011;48641;51.676;5.808;2022-07-29T12:23:21;5.15;;;1.73;;
62582;SDS011;48641;51.676;5.808;2022-07-29T12:25:46;4.43;;;1.55;;
62582;SDS011;48641;51.676;5.808;2022-07-29T12:28:13;5.53;;;1.63;;
62582;SDS011;48641;51.676;5.808;2022-07-29T12:30:50;3.25;;;1.30;;
62582;SDS011;48641;51.676;5.808;2022-07-29T12:35:52;4.57;;;1.50;;
62582;SDS011;48641;51.676;5.808;2022-07-29T12:38:21;3.97;;;1.50;;
62582;SDS011;48641;51.676;5.808;2022-07-29T12:40:47;4.55;;;1.42;;
62582;SDS011;48641;51.676;5.808;2022-07-29T12:43:17;5.60;;;2.03;;
62582;SDS011;48641;51.676;5.808;2022-07-29T12:45:49;3.85;;;1.45;;
62582;SDS011;48641;51.676;5.808;2022-07-29T12:48:17;3.50;;;1.30;;
62582;SDS011;48641;51.676;5.808;2022-07-29T12:50:58;5.43;;;1.60;;
62582;SDS011;48641;51.676;5.808;2022-07-29T12:53:26;6.15;;;1.70;;
62582;SDS011;48641;51.676;5.808;2022-07-29T12:55:54;4.28;;;1.80;;
62582;SDS011;48641;51.676;5.808;2022-07-29T12:58:28;6.00;;;1.77;;
62582;SDS011;48641;51.676;5.808;2022-07-29T13:01:01;4.85;;;1.80;;
62582;SDS011;48641;51.676;5.808;2022-07-29T13:03:47;6.47;;;1.92;;
62582;SDS011;48641;51.676;5.808;2022-07-29T13:09:00;4.80;;;1.55;;
62582;SDS011;48641;51.676;5.808;2022-07-29T13:11:48;4.18;;;1.75;;
62582;SDS011;48641;51.676;5.808;2022-07-29T13:14:34;4.40;;;1.60;;
62582;SDS011;48641;51.676;5.808;2022-07-29T13:22:13;6.15;;;2.00;;
62582;SDS011;48641;51.676;5.808;2022-07-29T13:24:54;4.05;;;1.85;;
62582;SDS011;48641;51.676;5.808;2022-07-29T13:27:22;5.05;;;1.98;;
62582;SDS011;48641;51.676;5.808;2022-07-29T13:29:49;4.13;;;1.70;;
62582;SDS011;48641;51.676;5.808;2022-07-29T13:32:17;6.10;;;1.70;;
62582;SDS011;48641;51.676;5.808;2022-07-29T13:34:43;5.15;;;1.73;;
62582;SDS011;48641;51.676;5.808;2022-07-29T13:37:08;4.00;;;1.67;;
62582;SDS011;48641;51.676;5.808;2022-07-29T13:39:34;4.00;;;1.83;;
62582;SDS011;48641;51.676;5.808;2022-07-29T13:42:00;3.85;;;1.50;;
62582;SDS011;48641;51.676;5.808;2022-07-29T13:44:26;4.20;;;1.65;;
62582;SDS011;48641;51.676;5.808;2022-07-29T13:46:52;5.68;;;1.90;;
62582;SDS011;48641;51.676;5.808;2022-07-29T13:49:17;4.72;;;1.70;;
62582;SDS011;48641;51.676;5.808;2022-07-29T13:51:43;4.78;;;1.88;;
62582;SDS011;48641;51.676;5.808;2022-07-29T13:54:09;4.13;;;1.90;;
62582;SDS011;48641;51.676;5.808;2022-07-29T13:56:34;4.97;;;1.83;;
62582;SDS011;48641;51.676;5.808;2022-07-29T13:59:00;2.90;;;1.50;;
62582;SDS011;48641;51.676;5.808;2022-07-29T14:01:25;3.67;;;1.52;;
62582;SDS011;48641;51.676;5.808;2022-07-29T14:03:52;3.70;;;1.77;;
62582;SDS011;48641;51.676;5.808;2022-07-29T14:06:18;4.07;;;1.70;;
62582;SDS011;48641;51.676;5.808;2022-07-29T14:08:44;3.65;;;1.60;;
62582;SDS011;48641;51.676;5.808;2022-07-29T14:11:09;3.95;;;1.52;;
62582;SDS011;48641;51.676;5.808;2022-07-29T14:13:35;4.18;;;1.70;;
62582;SDS011;48641;51.676;5.808;2022-07-29T14:16:00;4.03;;;1.80;;
62582;SDS011;48641;51.676;5.808;2022-07-29T14:18:26;4.30;;;1.70;;
62582;SDS011;48641;51.676;5.808;2022-07-29T14:20:51;4.78;;;1.80;;
62582;SDS011;48641;51.676;5.808;2022-07-29T14:23:17;3.45;;;2.00;;
62582;SDS011;48641;51.676;5.808;2022-07-29T14:25:43;3.92;;;1.77;;
62582;SDS011;48641;51.676;5.808;2022-07-29T14:28:09;4.18;;;1.70;;
62582;SDS011;48641;51.676;5.808;2022-07-29T14:30:34;3.85;;;1.98;;
62582;SDS011;48641;51.676;5.808;2022-07-29T14:33:00;4.22;;;1.73;;
62582;SDS011;48641;51.676;5.808;2022-07-29T14:35:25;5.15;;;1.70;;
62582;SDS011;48641;51.676;5.808;2022-07-29T14:37:53;3.80;;;2.00;;
62582;SDS011;48641;51.676;5.808;2022-07-29T14:40:19;3.60;;;1.80;;
62582;SDS011;48641;51.676;5.808;2022-07-29T14:42:44;3.55;;;1.80;;
62582;SDS011;48641;51.676;5.808;2022-07-29T14:45:10;4.55;;;2.08;;
62582;SDS011;48641;51.676;5.808;2022-07-29T14:47:36;3.85;;;1.70;;
62582;SDS011;48641;51.676;5.808;2022-07-29T14:50:02;4.82;;;2.00;;
62582;SDS011;48641;51.676;5.808;2022-07-29T14:52:29;6.80;;;2.00;;
62582;SDS011;48641;51.676;5.808;2022-07-29T14:54:55;6.20;;;2.00;;
62582;SDS011;48641;51.676;5.808;2022-07-29T14:57:21;4.20;;;2.00;;
62582;SDS011;48641;51.676;5.808;2022-07-29T14:59:46;4.85;;;1.98;;
62582;SDS011;48641;51.676;5.808;2022-07-29T15:02:12;6.00;;;2.00;;
62582;SDS011;48641;51.676;5.808;2022-07-29T15:04:37;4.45;;;2.13;;
62582;SDS011;48641;51.676;5.808;2022-07-29T15:07:03;7.05;;;2.00;;
62582;SDS011;48641;51.676;5.808;2022-07-29T15:09:29;6.07;;;2.00;;
62582;SDS011;48641;51.676;5.808;2022-07-29T15:11:55;4.47;;;1.90;;
62582;SDS011;48641;51.676;5.808;2022-07-29T15:14:20;8.15;;;2.25;;
62582;SDS011;48641;51.676;5.808;2022-07-29T15:16:46;6.63;;;2.53;;
62582;SDS011;48641;51.676;5.808;2022-07-29T15:19:12;3.78;;;2.20;;
62582;SDS011;48641;51.676;5.808;2022-07-29T15:21:38;7.28;;;2.38;;
62582;SDS011;48641;51.676;5.808;2022-07-29T15:24:03;4.28;;;1.77;;
62582;SDS011;48641;51.676;5.808;2022-07-29T15:26:29;3.72;;;1.98;;
62582;SDS011;48641;51.676;5.808;2022-07-29T15:28:55;5.13;;;2.00;;
62582;SDS011;48641;51.676;5.808;2022-07-29T15:31:21;5.68;;;2.10;;
62582;SDS011;48641;51.676;5.808;2022-07-29T15:33:47;5.85;;;2.10;;
62582;SDS011;48641;51.676;5.808;2022-07-29T15:36:12;5.70;;;1.98;;
62582;SDS011;48641;51.676;5.808;2022-07-29T15:38:38;5.88;;;2.30;;
62582;SDS011;48641;51.676;5.808;2022-07-29T15:41:05;5.10;;;2.00;;
62582;SDS011;48641;51.676;5.808;2022-07-29T15:43:31;3.63;;;1.95;;
62582;SDS011;48641;51.676;5.808;2022-07-29T15:45:57;8.48;;;2.28;;
62582;SDS011;48641;51.676;5.808;2022-07-29T15:48:41;5.43;;;1.90;;
62582;SDS011;48641;51.676;5.808;2022-07-29T15:51:07;7.07;;;2.35;;
62582;SDS011;48641;51.676;5.808;2022-07-29T15:53:32;6.25;;;2.42;;
62582;SDS011;48641;51.676;5.808;2022-07-29T15:55:58;5.90;;;2.53;;
62582;SDS011;48641;51.676;5.808;2022-07-29T15:58:23;4.05;;;2.00;;
62582;SDS011;48641;51.676;5.808;2022-07-29T16:00:49;4.22;;;2.00;;
62582;SDS011;48641;51.676;5.808;2022-07-29T16:03:15;5.22;;;2.30;;
62582;SDS011;48641;51.676;5.808;2022-07-29T16:05:44;4.75;;;2.10;;
62582;SDS011;48641;51.676;5.808;2022-07-29T16:08:10;6.45;;;2.42;;
62582;SDS011;48641;51.676;5.808;2022-07-29T16:10:36;6.13;;;2.25;;
62582;SDS011;48641;51.676;5.808;2022-07-29T16:13:02;4.25;;;1.92;;